createdAt,value
2022-08-26T00:02:05.954Z,100.00
2022-08-26T00:04:34.169Z,100.00
2022-08-26T00:07:02.094Z,100.00
2022-08-26T00:09:32.895Z,100.00
2022-08-26T00:12:05.613Z,100.00
2022-08-26T00:14:33.347Z,100.00
2022-08-26T00:17:01.137Z,100.00
2022-08-26T00:19:29.325Z,100.00
2022-08-26T00:21:57.118Z,100.00
2022-08-26T00:24:25.035Z,100.00
2022-08-26T00:26:54.529Z,100.00
2022-08-26T00:29:22.394Z,100.00
2022-08-26T00:31:50.895Z,100.00
2022-08-26T00:34:19.536Z,100.00
2022-08-26T00:36:47.743Z,100.00
2022-08-26T00:39:17.153Z,100.00
2022-08-26T00:41:46.499Z,100.00
2022-08-26T00:44:15.673Z,100.00
2022-08-26T00:46:47.253Z,100.00
2022-08-26T00:49:19.159Z,100.00
2022-08-26T00:51:52.147Z,100.00
2022-08-26T00:54:22.254Z,100.00
2022-08-26T00:56:56.048Z,100.00
2022-08-26T00:59:26.291Z,100.00
2022-08-26T01:01:54.423Z,100.00
2022-08-26T01:04:24.799Z,100.00
2022-08-26T01:06:55.414Z,100.00
2022-08-26T01:09:24.483Z,100.00
2022-08-26T01:11:56.488Z,100.00
2022-08-26T01:14:27.818Z,100.00
2022-08-26T01:16:55.641Z,100.00
2022-08-26T01:19:29.062Z,100.00
2022-08-26T01:21:59.018Z,100.00
2022-08-26T01:24:30.776Z,100.00
2022-08-26T01:27:01.480Z,100.00
2022-08-26T01:29:31.014Z,100.00
2022-08-26T01:31:59.704Z,100.00
2022-08-26T01:34:30.308Z,100.00
2022-08-26T01:37:02.529Z,100.00
2022-08-26T01:39:33.262Z,100.00
2022-08-26T01:42:03.150Z,100.00
2022-08-26T01:44:34.279Z,100.00
2022-08-26T01:47:03.072Z,100.00
2022-08-26T01:49:34.474Z,100.00
2022-08-26T01:52:05.292Z,100.00
2022-08-26T01:54:36.453Z,100.00
2022-08-26T01:57:05.176Z,100.00
2022-08-26T01:59:33.109Z,100.00
2022-08-26T02:02:00.861Z,100.00
2022-08-26T02:04:32.117Z,100.00
2022-08-26T02:07:04.780Z,100.00
2022-08-26T02:09:32.965Z,100.00
2022-08-26T02:12:13.094Z,100.00
2022-08-26T02:14:46.729Z,100.00
2022-08-26T02:17:15.603Z,100.00
2022-08-26T02:19:49.044Z,100.00
2022-08-26T02:22:20.990Z,100.00
2022-08-26T02:24:51.421Z,100.00
2022-08-26T02:27:25.486Z,100.00
2022-08-26T02:29:59.874Z,100.00
2022-08-26T02:32:29.048Z,100.00
2022-08-26T02:34:57.094Z,100.00
2022-08-26T02:37:29.029Z,100.00
2022-08-26T02:39:56.818Z,100.00
2022-08-26T02:42:26.204Z,100.00
2022-08-26T02:44:53.980Z,100.00
2022-08-26T02:47:21.753Z,100.00
2022-08-26T02:49:53.075Z,100.00
2022-08-26T02:52:21.664Z,100.00
2022-08-26T02:54:49.607Z,100.00
2022-08-26T02:57:18.054Z,100.00
2022-08-26T02:59:47.323Z,100.00
2022-08-26T03:02:15.279Z,100.00
2022-08-26T03:04:57.502Z,100.00
2022-08-26T03:07:28.618Z,100.00
2022-08-26T03:09:57.454Z,100.00
2022-08-26T03:12:25.583Z,100.00
2022-08-26T03:14:54.965Z,100.00
2022-08-26T03:17:22.705Z,100.00
2022-08-26T03:19:54.662Z,100.00
2022-08-26T03:22:25.514Z,100.00
2022-08-26T03:24:55.153Z,100.00
2022-08-26T03:27:22.916Z,100.00
2022-08-26T03:30:08.258Z,100.00
2022-08-26T03:32:41.432Z,100.00
2022-08-26T03:35:09.826Z,100.00
2022-08-26T03:37:37.669Z,100.00
2022-08-26T03:40:09.906Z,100.00
2022-08-26T03:42:38.032Z,100.00
2022-08-26T03:45:08.255Z,100.00
2022-08-26T03:47:36.097Z,100.00
2022-08-26T03:50:09.750Z,100.00
2022-08-26T03:52:43.073Z,100.00
2022-08-26T03:55:12.877Z,100.00
2022-08-26T03:57:41.357Z,100.00
2022-08-26T04:00:14.369Z,100.00
2022-08-26T04:02:48.769Z,100.00
2022-08-26T04:05:20.541Z,100.00
2022-08-26T04:07:48.913Z,100.00
2022-08-26T04:10:22.045Z,100.00
2022-08-26T04:12:56.644Z,100.00
2022-08-26T04:15:27.956Z,100.00
2022-08-26T04:17:57.253Z,100.00
2022-08-26T04:20:26.975Z,100.00
2022-08-26T04:22:54.858Z,100.00
2022-08-26T04:25:22.578Z,100.00
2022-08-26T04:27:52.179Z,100.00
2022-08-26T04:30:21.187Z,100.00
2022-08-26T04:32:49.563Z,100.00
2022-08-26T04:35:17.749Z,100.00
2022-08-26T04:37:46.863Z,100.00
2022-08-26T04:40:14.750Z,100.00
2022-08-26T04:42:42.973Z,100.00
2022-08-26T04:45:11.953Z,100.00
2022-08-26T04:47:39.676Z,100.00
2022-08-26T04:50:08.981Z,100.00
2022-08-26T04:52:38.784Z,100.00
2022-08-26T04:55:08.790Z,100.00
2022-08-26T04:57:36.728Z,100.00
2022-08-26T05:00:06.233Z,100.00
2022-08-26T05:02:34.250Z,100.00
2022-08-26T05:05:02.135Z,100.00
2022-08-26T05:07:31.164Z,100.00
2022-08-26T05:10:00.222Z,100.00
2022-08-26T05:12:29.811Z,100.00
2022-08-26T05:14:57.852Z,100.00
2022-08-26T05:17:27.135Z,100.00
2022-08-26T05:19:55.439Z,100.00
2022-08-26T05:22:23.251Z,100.00
2022-08-26T05:24:50.974Z,100.00
2022-08-26T05:27:19.493Z,100.00
2022-08-26T05:29:54.559Z,100.00
2022-08-26T05:32:22.532Z,100.00
2022-08-26T05:34:55.313Z,100.00
2022-08-26T05:37:23.121Z,100.00
2022-08-26T05:39:51.489Z,100.00
2022-08-26T05:42:19.866Z,100.00
2022-08-26T05:44:53.884Z,100.00
2022-08-26T05:47:24.526Z,100.00
2022-08-26T05:49:52.275Z,100.00
2022-08-26T05:52:20.864Z,100.00
2022-08-26T05:54:52.642Z,100.00
2022-08-26T05:57:20.379Z,100.00
2022-08-26T05:59:52.625Z,100.00
2022-08-26T06:02:20.554Z,100.00
2022-08-26T06:04:48.464Z,100.00
2022-08-26T06:07:17.069Z,100.00
2022-08-26T06:09:46.314Z,100.00
2022-08-26T06:12:14.073Z,100.00
2022-08-26T06:14:42.861Z,100.00
2022-08-26T06:17:12.008Z,100.00
2022-08-26T06:19:41.452Z,100.00
2022-08-26T06:22:29.250Z,100.00
2022-08-26T06:25:14.709Z,100.00
2022-08-26T06:27:42.491Z,100.00
2022-08-26T06:30:11.193Z,100.00
2022-08-26T06:32:41.566Z,100.00
2022-08-26T06:35:11.938Z,100.00
2022-08-26T06:37:40.169Z,100.00
2022-08-26T06:40:09.896Z,100.00
2022-08-26T06:42:39.331Z,100.00
2022-08-26T06:45:08.362Z,100.00
2022-08-26T06:47:36.234Z,100.00
2022-08-26T06:50:05.705Z,100.00
2022-08-26T06:52:33.546Z,100.00
2022-08-26T06:55:02.467Z,100.00
2022-08-26T06:57:32.831Z,100.00
2022-08-26T07:00:02.907Z,100.00
2022-08-26T07:02:31.870Z,100.00
2022-08-26T07:04:59.672Z,100.00
2022-08-26T07:07:29.004Z,100.00
2022-08-26T07:09:56.742Z,100.00
2022-08-26T07:12:25.797Z,100.00
2022-08-26T07:14:53.997Z,100.00
2022-08-26T07:17:21.723Z,100.00
2022-08-26T07:19:53.584Z,100.00
2022-08-26T07:22:21.319Z,100.00
2022-08-26T07:24:50.614Z,100.00
2022-08-26T07:27:18.615Z,100.00
2022-08-26T07:29:46.389Z,99.11
2022-08-26T07:32:15.338Z,98.33
2022-08-26T07:34:43.245Z,98.44
2022-08-26T07:37:11.576Z,98.05
2022-08-26T07:39:41.590Z,100.00
2022-08-26T07:42:14.354Z,98.69
2022-08-26T07:44:42.673Z,98.32
2022-08-26T07:47:24.932Z,96.47
2022-08-26T07:49:54.837Z,97.16
2022-08-26T07:52:26.151Z,97.21
2022-08-26T07:54:54.652Z,96.05
2022-08-26T07:57:24.134Z,94.86
2022-08-26T07:59:55.050Z,95.38
2022-08-26T08:02:23.995Z,97.35
2022-08-26T08:04:52.287Z,95.55
2022-08-26T08:07:20.278Z,95.49
2022-08-26T08:09:49.469Z,95.42
2022-08-26T08:12:17.245Z,95.73
2022-08-26T08:14:48.294Z,94.50
2022-08-26T08:17:16.864Z,94.74
2022-08-26T08:19:44.797Z,96.00
2022-08-26T08:22:17.633Z,95.32
2022-08-26T08:24:52.891Z,95.86
2022-08-26T08:27:23.859Z,96.25
2022-08-26T08:29:55.386Z,95.90
2022-08-26T08:32:24.148Z,95.18
2022-08-26T08:34:53.130Z,96.59
2022-08-26T08:37:21.262Z,95.46
2022-08-26T08:39:49.222Z,94.85
2022-08-26T08:42:40.086Z,93.21
2022-08-26T08:45:12.393Z,93.52
2022-08-26T08:47:45.095Z,92.78
2022-08-26T08:50:23.100Z,92.07
2022-08-26T08:52:58.600Z,91.89
2022-08-26T08:55:33.422Z,90.61
2022-08-26T08:58:06.678Z,90.87
2022-08-26T09:00:44.261Z,92.61
2022-08-26T09:03:28.857Z,90.74
2022-08-26T09:06:00.101Z,89.03
2022-08-26T09:08:32.725Z,88.63
2022-08-26T09:11:03.181Z,88.78
2022-08-26T09:13:31.533Z,86.53
2022-08-26T09:16:08.298Z,88.08
2022-08-26T09:19:07.000Z,87.54
2022-08-26T09:21:35.879Z,87.77
2022-08-26T09:24:04.230Z,84.38
2022-08-26T09:26:45.199Z,82.17
2022-08-26T09:29:23.331Z,81.23
2022-08-26T09:31:56.786Z,81.01
2022-08-26T09:34:26.215Z,80.80
2022-08-26T09:36:56.208Z,79.79
2022-08-26T09:39:31.816Z,78.72
2022-08-26T09:42:09.794Z,78.90
2022-08-26T09:44:54.233Z,78.74
2022-08-26T09:47:27.609Z,76.48
2022-08-26T09:50:04.462Z,77.13
2022-08-26T09:52:40.561Z,75.91
2022-08-26T09:55:15.044Z,78.35
2022-08-26T09:57:48.924Z,79.40
2022-08-26T10:00:26.925Z,80.10
2022-08-26T10:02:58.166Z,79.68
2022-08-26T10:05:41.252Z,81.26
2022-08-26T10:08:23.115Z,78.95
2022-08-26T10:10:52.980Z,77.24
2022-08-26T10:13:26.585Z,74.91
2022-08-26T10:16:05.698Z,76.95
2022-08-26T10:18:39.858Z,76.00
2022-08-26T10:21:13.353Z,73.01
2022-08-26T10:23:45.146Z,71.20
2022-08-26T10:26:17.399Z,68.24
2022-08-26T10:28:48.418Z,70.70
2022-08-26T10:31:40.126Z,72.11
2022-08-26T10:34:10.425Z,72.02
2022-08-26T10:39:46.005Z,73.83
2022-08-26T10:42:21.638Z,73.59
2022-08-26T10:44:53.857Z,74.85
2022-08-26T10:47:33.413Z,75.88
2022-08-26T10:50:05.016Z,75.36
2022-08-26T10:52:44.721Z,75.47
2022-08-26T10:55:20.143Z,70.39
2022-08-26T10:57:55.480Z,70.77
2022-08-26T11:00:48.076Z,70.69
2022-08-26T11:03:31.455Z,70.49
2022-08-26T11:06:24.885Z,70.19
2022-08-26T11:08:53.829Z,68.85
2022-08-26T11:11:47.947Z,68.84
2022-08-26T11:14:34.238Z,64.97
2022-08-26T11:17:14.398Z,66.22
2022-08-26T11:20:07.404Z,64.13
2022-08-26T11:22:39.764Z,64.69
2022-08-26T11:25:18.240Z,63.91
2022-08-26T11:27:56.403Z,65.20
2022-08-26T11:30:43.475Z,64.51
2022-08-26T11:33:12.673Z,65.56
2022-08-26T11:35:50.408Z,65.82
2022-08-26T11:38:26.249Z,68.01
2022-08-26T11:41:19.856Z,67.78
2022-08-26T11:43:52.180Z,65.22
2022-08-26T11:46:25.898Z,64.43
2022-08-26T11:49:01.755Z,61.76
2022-08-26T11:51:31.547Z,62.14
2022-08-26T11:54:12.297Z,61.68
2022-08-26T11:56:42.699Z,61.73
2022-08-26T11:59:15.515Z,64.02
2022-08-26T12:01:45.433Z,64.50
2022-08-26T12:04:21.582Z,63.03
2022-08-26T12:06:52.353Z,62.47
2022-08-26T12:09:24.939Z,63.71
2022-08-26T12:11:54.141Z,60.87
2022-08-26T12:14:27.806Z,59.12
2022-08-26T12:16:56.012Z,57.02
2022-08-26T12:19:26.343Z,58.93
2022-08-26T12:22:01.814Z,58.52
2022-08-26T12:24:31.534Z,59.41
2022-08-26T12:27:16.824Z,60.81
2022-08-26T12:29:48.408Z,59.68
2022-08-26T12:32:19.311Z,58.97
2022-08-26T12:34:49.521Z,57.48
2022-08-26T12:37:18.914Z,59.34
2022-08-26T12:39:49.058Z,56.01
2022-08-26T12:42:40.151Z,54.93
2022-08-26T12:45:09.542Z,54.40
2022-08-26T12:47:42.925Z,54.15
2022-08-26T12:50:19.355Z,54.79
2022-08-26T12:52:57.445Z,55.99
2022-08-26T12:55:36.405Z,53.90
2022-08-26T12:58:14.081Z,54.00
2022-08-26T13:00:43.807Z,54.10
2022-08-26T13:03:45.882Z,54.42
2022-08-26T13:06:27.267Z,55.28
2022-08-26T13:08:56.823Z,53.46
2022-08-26T13:11:28.964Z,51.90
2022-08-26T13:13:59.708Z,51.08
2022-08-26T13:16:29.029Z,54.23
2022-08-26T13:18:59.780Z,52.02
2022-08-26T13:21:29.902Z,50.54
2022-08-26T13:24:08.495Z,51.70
2022-08-26T13:26:37.621Z,52.03
2022-08-26T13:29:10.008Z,50.87
2022-08-26T13:31:39.801Z,52.75
2022-08-26T13:34:09.215Z,51.88
2022-08-26T13:36:36.991Z,51.61
2022-08-26T13:39:05.196Z,53.58
2022-08-26T13:41:33.198Z,52.39
2022-08-26T13:44:02.993Z,52.83
2022-08-26T13:46:31.156Z,50.12
2022-08-26T13:48:59.504Z,51.83
2022-08-26T13:51:28.446Z,53.42
2022-08-26T13:53:57.959Z,50.46
2022-08-26T13:56:29.363Z,49.91
2022-08-26T13:58:58.521Z,48.43
2022-08-26T14:01:28.454Z,52.11
2022-08-26T14:03:56.516Z,50.74
2022-08-26T14:06:24.982Z,49.93
2022-08-26T14:08:52.770Z,51.97
2022-08-26T14:11:21.362Z,50.67
2022-08-26T14:13:49.200Z,51.63
2022-08-26T14:16:23.849Z,51.69
2022-08-26T14:18:53.323Z,50.52
2022-08-26T14:21:21.309Z,49.41
2022-08-26T14:23:49.084Z,50.28
2022-08-26T14:26:28.748Z,49.81
2022-08-26T14:28:57.801Z,50.45
2022-08-26T14:31:26.992Z,49.64
2022-08-26T14:33:58.730Z,49.35
2022-08-26T14:36:29.522Z,48.20
2022-08-26T14:39:00.798Z,49.20
2022-08-26T14:41:30.005Z,49.89
2022-08-26T14:44:01.261Z,49.35
2022-08-26T14:46:30.674Z,49.37
2022-08-26T14:49:03.543Z,48.34
2022-08-26T14:51:32.177Z,48.86
2022-08-26T14:54:14.928Z,49.41
2022-08-26T14:56:46.902Z,49.98
2022-08-26T14:59:17.413Z,49.56
2022-08-26T15:01:45.724Z,51.66
2022-08-26T15:04:15.636Z,48.92
2022-08-26T15:06:43.653Z,48.43
2022-08-26T15:09:12.134Z,47.30
2022-08-26T15:11:39.947Z,51.17
2022-08-26T15:14:07.939Z,50.58
2022-08-26T15:16:46.837Z,49.06
2022-08-26T15:19:16.456Z,49.83
2022-08-26T15:21:45.542Z,50.44
2022-08-26T15:24:13.591Z,48.34
2022-08-26T15:26:41.886Z,50.15
2022-08-26T15:29:09.659Z,50.40
2022-08-26T15:31:37.506Z,49.97
2022-08-26T15:34:07.465Z,48.46
2022-08-26T15:36:37.841Z,49.81
2022-08-26T15:39:07.892Z,48.98
2022-08-26T15:41:37.218Z,49.63
2022-08-26T15:44:06.114Z,48.88
2022-08-26T15:46:34.421Z,50.02
2022-08-26T15:49:03.361Z,50.06
2022-08-26T15:51:32.940Z,50.39
2022-08-26T15:54:03.265Z,50.98
2022-08-26T15:56:37.422Z,50.26
2022-08-26T15:59:07.993Z,50.21
2022-08-26T16:01:36.237Z,50.66
2022-08-26T16:04:04.975Z,49.52
2022-08-26T16:06:35.184Z,47.79
2022-08-26T16:09:06.044Z,48.04
2022-08-26T16:11:34.576Z,48.22
2022-08-26T16:14:02.442Z,47.95
2022-08-26T16:16:30.200Z,50.66
2022-08-26T16:18:57.960Z,49.98
2022-08-26T16:21:28.537Z,49.55
2022-08-26T16:23:58.000Z,49.38
2022-08-26T16:26:29.663Z,50.39
2022-08-26T16:28:57.427Z,48.73
2022-08-26T16:31:25.435Z,48.60
2022-08-26T16:33:53.242Z,49.21
2022-08-26T16:36:21.013Z,47.75
2022-08-26T16:38:53.315Z,47.90
2022-08-26T16:41:21.181Z,47.24
2022-08-26T16:43:50.614Z,46.75
2022-08-26T16:46:18.863Z,45.87
2022-08-26T16:48:46.698Z,48.42
2022-08-26T16:51:16.021Z,48.77
2022-08-26T16:53:46.543Z,47.91
2022-08-26T16:56:14.806Z,49.56
2022-08-26T16:58:43.046Z,49.24
2022-08-26T17:01:12.490Z,47.37
2022-08-26T17:03:40.273Z,48.98
2022-08-26T17:06:08.821Z,49.43
2022-08-26T17:08:37.884Z,47.99
2022-08-26T17:11:05.818Z,48.58
2022-08-26T17:13:35.460Z,49.14
2022-08-26T17:16:05.348Z,50.25
2022-08-26T17:18:35.658Z,50.38
2022-08-26T17:21:04.836Z,50.63
2022-08-26T17:23:33.077Z,50.40
2022-08-26T17:26:00.986Z,50.93
2022-08-26T17:28:28.750Z,52.19
2022-08-26T17:30:57.221Z,51.70
2022-08-26T17:33:25.619Z,51.63
2022-08-26T17:35:55.067Z,53.26
2022-08-26T17:38:23.187Z,54.26
2022-08-26T17:40:51.383Z,54.85
2022-08-26T17:43:19.698Z,55.32
2022-08-26T17:45:47.734Z,56.28
2022-08-26T17:48:15.526Z,56.80
2022-08-26T17:50:49.317Z,56.92
2022-08-26T17:53:19.424Z,56.49
2022-08-26T17:55:47.522Z,58.50
2022-08-26T17:58:16.029Z,58.86
2022-08-26T18:00:44.731Z,60.52
2022-08-26T18:03:12.600Z,60.28
2022-08-26T18:05:40.924Z,59.41
2022-08-26T18:08:08.642Z,60.44
2022-08-26T18:10:37.852Z,61.12
2022-08-26T18:13:05.747Z,60.67
2022-08-26T18:15:33.528Z,61.59
2022-08-26T18:18:01.410Z,62.99
2022-08-26T18:20:29.156Z,63.68
2022-08-26T18:22:56.894Z,63.88
2022-08-26T18:25:24.666Z,65.50
2022-08-26T18:27:53.785Z,66.23
2022-08-26T18:30:22.657Z,67.04
2022-08-26T18:32:51.333Z,66.45
2022-08-26T18:35:21.024Z,67.00
2022-08-26T18:37:49.225Z,66.85
2022-08-26T18:40:18.505Z,66.39
2022-08-26T18:42:46.287Z,66.82
2022-08-26T18:45:18.731Z,68.96
2022-08-26T18:47:46.478Z,68.16
2022-08-26T18:50:14.258Z,69.47
2022-08-26T18:52:42.170Z,69.26
2022-08-26T18:55:10.383Z,70.72
2022-08-26T18:57:38.122Z,71.18
2022-08-26T19:00:07.654Z,71.99
2022-08-26T19:02:36.891Z,72.51
2022-08-26T19:05:07.453Z,74.00
2022-08-26T19:07:39.535Z,74.32
2022-08-26T19:10:08.379Z,73.52
2022-08-26T19:12:36.294Z,72.70
2022-08-26T19:15:04.841Z,73.96
2022-08-26T19:17:32.750Z,73.06
2022-08-26T19:20:01.853Z,73.48
2022-08-26T19:22:29.617Z,74.07
2022-08-26T19:24:57.361Z,75.26
2022-08-26T19:27:25.102Z,76.07
2022-08-26T19:29:52.852Z,75.72
2022-08-26T19:32:24.149Z,76.94
2022-08-26T19:34:52.643Z,75.65
2022-08-26T19:37:22.513Z,76.54
2022-08-26T19:39:50.944Z,75.79
2022-08-26T19:42:18.718Z,76.17
2022-08-26T19:45:04.172Z,76.96
2022-08-26T19:47:31.954Z,77.32
2022-08-26T19:49:59.692Z,78.16
2022-08-26T19:52:30.865Z,79.22
2022-08-26T19:54:58.740Z,79.73
2022-08-26T19:57:26.520Z,79.67
2022-08-26T19:59:54.277Z,80.30
2022-08-26T20:02:22.033Z,81.46
2022-08-26T20:04:49.809Z,82.50
2022-08-26T20:07:18.857Z,81.58
2022-08-26T20:09:49.230Z,81.33
2022-08-26T20:12:17.485Z,81.91
2022-08-26T20:14:45.823Z,82.21
2022-08-26T20:17:14.392Z,82.48
2022-08-26T20:19:59.793Z,84.71
2022-08-26T20:22:28.115Z,83.51
2022-08-26T20:24:57.402Z,83.48
2022-08-26T20:27:35.573Z,84.05
2022-08-26T20:30:08.520Z,84.44
2022-08-26T20:32:36.436Z,86.46
2022-08-26T20:35:06.541Z,85.14
2022-08-26T20:37:34.533Z,87.72
2022-08-26T20:40:04.719Z,85.32
2022-08-26T20:42:32.555Z,85.95
2022-08-26T20:45:00.290Z,87.86
2022-08-26T20:47:28.166Z,87.36
2022-08-26T20:49:57.013Z,85.70
2022-08-26T20:52:24.826Z,88.03
2022-08-26T20:54:52.911Z,88.09
2022-08-26T20:57:22.624Z,89.39
2022-08-26T20:59:50.361Z,89.78
2022-08-26T21:02:18.168Z,89.06
2022-08-26T21:04:45.949Z,90.06
2022-08-26T21:07:13.825Z,91.26
2022-08-26T21:09:41.638Z,90.98
2022-08-26T21:12:09.987Z,90.66
2022-08-26T21:14:39.075Z,89.92
2022-08-26T21:17:06.887Z,90.96
2022-08-26T21:19:34.668Z,92.23
2022-08-26T21:22:02.412Z,89.99
2022-08-26T21:24:30.213Z,92.18
2022-08-26T21:26:57.958Z,91.43
2022-08-26T21:29:26.293Z,92.48
2022-08-26T21:31:55.645Z,93.25
2022-08-26T21:34:23.389Z,93.24
2022-08-26T21:36:51.597Z,92.54
2022-08-26T21:39:20.332Z,93.28
2022-08-26T21:41:48.233Z,92.03
2022-08-26T21:44:17.730Z,93.24
2022-08-26T21:46:46.636Z,93.91
2022-08-26T21:49:16.882Z,94.50
2022-08-26T21:51:47.660Z,96.01
2022-08-26T21:54:16.414Z,95.82
2022-08-26T21:56:47.047Z,94.15
2022-08-26T21:59:15.727Z,96.87
2022-08-26T22:01:43.517Z,96.11
2022-08-26T22:04:11.736Z,97.04
2022-08-26T22:06:47.666Z,96.84
2022-08-26T22:09:18.185Z,96.70
2022-08-26T22:11:46.294Z,97.32
2022-08-26T22:14:15.027Z,97.91
2022-08-26T22:16:50.249Z,98.13
2022-08-26T22:19:19.894Z,98.00
2022-08-26T22:21:50.750Z,96.51
2022-08-26T22:24:19.225Z,96.59
2022-08-26T22:26:47.750Z,98.53
2022-08-26T22:29:16.000Z,98.25
2022-08-26T22:31:43.771Z,98.53
2022-08-26T22:34:15.130Z,97.95
2022-08-26T22:36:45.209Z,98.99
2022-08-26T22:39:15.536Z,99.55
2022-08-26T22:41:43.507Z,99.69
2022-08-26T22:44:12.482Z,99.13
2022-08-26T22:46:41.054Z,99.27
2022-08-26T22:49:10.047Z,97.60
2022-08-26T22:51:37.833Z,98.93
2022-08-26T22:54:06.119Z,100.00
2022-08-26T22:56:36.276Z,97.24
2022-08-26T22:59:04.352Z,99.43
2022-08-26T23:01:35.634Z,97.95
2022-08-26T23:04:04.070Z,100.00
2022-08-26T23:06:31.884Z,98.90
2022-08-26T23:08:59.659Z,100.00
2022-08-26T23:11:27.425Z,100.00
2022-08-26T23:13:56.546Z,100.00
2022-08-26T23:16:24.395Z,99.39
2022-08-26T23:18:52.587Z,100.00
2022-08-26T23:21:20.406Z,100.00
2022-08-26T23:23:48.200Z,100.00
2022-08-26T23:26:17.760Z,100.00
2022-08-26T23:28:45.952Z,100.00
2022-08-26T23:31:15.535Z,100.00
2022-08-26T23:34:00.754Z,100.00
2022-08-26T23:36:30.982Z,100.00
2022-08-26T23:39:02.138Z,100.00
2022-08-26T23:41:29.871Z,100.00
2022-08-26T23:44:01.623Z,100.00
2022-08-26T23:46:32.587Z,100.00
2022-08-26T23:49:00.629Z,100.00
2022-08-26T23:51:45.960Z,100.00
2022-08-26T23:54:14.705Z,100.00
2022-08-26T23:56:43.186Z,100.00
2022-08-26T23:59:10.927Z,100.00
